Pagrindinis puslapis
METAR-TAF:

METAR-TAF

Oro uostai :

Liuksemburgas, Liuksemburgas

platuma: 49-37N, ilguma: 006-13E, Aukštis: 376 m

Dabartinis oras

Ataskaita buvo paskelbta 26 minutes, ne 04:50 UTC
Vėjas 10 kt iš Šiaurės Rytų
Temperatūra 11°C
Drėgmė 54%
Slėgis 1027 hPa
Matomumas 10 km arba daugiau
nėra debesų žemiau 1500 m ir nėra kamuolinių lietaus debesų

METAR: ELLX 290450Z 05010KT CAVOK 11/02 Q1027 NOSIG

Laikas: 07:16 (05:16 UTC)

Prognozė

Ataskaita buvo paskelbta 6 valandos ir 16 minutes, ne 23:00 UTC
Prognozė galioja nuo 29 metu 00 UTC su 30 metu 06 UTC
Vėjas 12 kt iš Šiaurės Rytų
Matomumas 10 km arba daugiau
nėra debesų žemiau 1500 m ir nėra kamuolinių lietaus debesų

TAF: ELLX 282300Z 2900/3006 04012KT CAVOK

Orai ataskaitas ir orų prognozės (METAR, TAF).

turimą stotys yra geltonos ir raudonos taškus žemėlapyje.

Perkelti pele per norėdami pamatyti stoties vardą.

Tada spustelėkite, norėdami matyti oro stebėjimo ir prognozės.

Norėdami pakeisti žemėlapį: spustelėkite ant žalios mygtukų su juodo kryžiaus žemyn,; žalią mygtuką su brūkšneliu, jei norite nutolinti; arba žalių rodyklių gretimoms žemėlapius.


METAR-TAF: